createdAt,value
2023-03-15T00:00:56.789Z,0
2023-03-15T00:07:16.760Z,0
2023-03-15T00:13:39.800Z,0
2023-03-15T00:20:00.081Z,0
2023-03-15T00:26:22.796Z,0
2023-03-15T00:32:42.949Z,0
2023-03-15T00:39:05.812Z,0
2023-03-15T00:45:25.948Z,0
2023-03-15T00:51:48.895Z,0
2023-03-15T00:58:08.886Z,0
2023-03-15T01:04:31.833Z,0
2023-03-15T01:10:51.816Z,0
2023-03-15T01:17:14.856Z,0
2023-03-15T01:23:34.886Z,0
2023-03-15T01:29:57.837Z,0
2023-03-15T01:36:17.801Z,0
2023-03-15T01:42:40.782Z,0
2023-03-15T01:49:00.805Z,0
2023-03-15T01:55:23.800Z,0
2023-03-15T02:01:43.879Z,0
2023-03-15T02:08:06.804Z,0
2023-03-15T02:14:26.987Z,0
2023-03-15T02:20:49.809Z,0
2023-03-15T02:27:09.888Z,0
2023-03-15T02:33:32.942Z,0
2023-03-15T02:39:52.773Z,0
2023-03-15T02:46:15.795Z,0
2023-03-15T02:52:35.844Z,0
2023-03-15T02:58:58.753Z,0
2023-03-15T03:05:18.800Z,0
2023-03-15T03:11:41.924Z,0
2023-03-15T03:18:01.922Z,0
2023-03-15T03:24:24.779Z,0
2023-03-15T03:30:44.848Z,0
2023-03-15T03:37:07.885Z,0
2023-03-15T03:43:27.856Z,0
2023-03-15T03:49:50.789Z,0
2023-03-15T03:56:10.883Z,0
2023-03-15T04:02:33.862Z,0
2023-03-15T04:08:53.815Z,0
2023-03-15T04:25:39.539Z,0
2023-03-15T04:31:59.752Z,0
2023-03-15T04:38:22.833Z,0
2023-03-15T04:44:42.864Z,0
2023-03-15T04:51:05.849Z,0
2023-03-15T04:57:25.830Z,0
2023-03-15T05:03:48.780Z,0
2023-03-15T05:10:08.822Z,0
2023-03-15T05:16:31.879Z,0
2023-03-15T05:22:51.811Z,0
2023-03-15T05:29:14.792Z,0
2023-03-15T05:35:34.758Z,0
2023-03-15T05:41:57.890Z,0
2023-03-15T05:48:17.815Z,0
2023-03-15T05:54:40.816Z,0
2023-03-15T06:01:00.856Z,0
2023-03-15T06:07:23.813Z,0
2023-03-15T06:13:43.891Z,0
2023-03-15T06:20:06.897Z,0
2023-03-15T06:26:26.819Z,0
2023-03-15T06:32:49.861Z,0
2023-03-15T06:39:09.844Z,0
2023-03-15T06:45:32.772Z,0
2023-03-15T06:51:52.738Z,0
2023-03-15T06:58:15.922Z,0
2023-03-15T07:04:35.870Z,0
2023-03-15T07:10:59.849Z,0
2023-03-15T07:17:19.872Z,5.62
2023-03-15T07:23:42.787Z,5.62
2023-03-15T07:30:02.837Z,16.88
2023-03-15T07:36:25.913Z,16.88
2023-03-15T07:42:45.747Z,11.25
2023-03-15T07:49:09.521Z,11.25
2023-03-15T07:55:29.848Z,16.88
2023-03-15T08:01:52.908Z,16.88
2023-03-15T08:08:12.825Z,22.5
2023-03-15T08:14:35.780Z,33.75
2023-03-15T08:20:55.841Z,28.12
2023-03-15T08:27:18.964Z,22.5
2023-03-15T08:33:38.953Z,28.12
2023-03-15T08:40:01.762Z,22.5
2023-03-15T08:46:21.967Z,28.12
2023-03-15T08:52:44.810Z,28.12
2023-03-15T08:59:04.742Z,28.12
2023-03-15T09:05:27.745Z,22.5
2023-03-15T09:29:26.691Z,45
2023-03-15T09:35:46.788Z,45
2023-03-15T09:42:09.774Z,50.62
2023-03-15T09:48:29.761Z,56.25
2023-03-15T09:54:52.763Z,61.88
2023-03-15T10:01:12.853Z,45
2023-03-15T10:07:35.840Z,78.75
2023-03-15T10:13:55.901Z,78.75
2023-03-15T10:20:18.889Z,101.25
2023-03-15T10:26:38.802Z,56.25
2023-03-15T10:33:01.944Z,39.38
2023-03-15T10:39:21.768Z,84.38
2023-03-15T10:45:44.892Z,101.25
2023-03-15T10:52:04.785Z,106.88
2023-03-15T10:58:27.837Z,129.38
2023-03-15T11:04:47.811Z,45
2023-03-15T11:11:11.024Z,45
2023-03-15T11:17:30.892Z,118.12
2023-03-15T11:23:53.809Z,135
2023-03-15T11:30:13.830Z,135
2023-03-15T11:36:36.763Z,112.5
2023-03-15T11:42:56.824Z,84.38
2023-03-15T11:49:19.758Z,95.62
2023-03-15T11:55:39.763Z,168.75
2023-03-15T12:02:02.866Z,84.38
2023-03-15T12:08:22.790Z,78.75
2023-03-15T12:14:45.886Z,78.75
2023-03-15T12:21:05.832Z,73.12
2023-03-15T12:27:28.752Z,61.88
2023-03-15T12:33:48.801Z,67.5
2023-03-15T12:40:11.774Z,56.25
2023-03-15T12:46:31.895Z,78.75
2023-03-15T12:52:54.786Z,56.25
2023-03-15T12:59:14.793Z,39.38
2023-03-15T13:05:37.808Z,33.75
2023-03-15T13:11:57.771Z,39.38
2023-03-15T13:18:20.853Z,61.88
2023-03-15T13:24:40.815Z,56.25
2023-03-15T13:31:03.831Z,157.5
2023-03-15T13:37:23.800Z,56.25
2023-03-15T13:43:47.018Z,61.88
2023-03-15T13:50:06.837Z,67.5
2023-03-15T13:56:37.351Z,73.12
2023-03-15T14:02:49.823Z,61.88
2023-03-15T14:09:12.794Z,146.25
2023-03-15T14:15:33.897Z,135
2023-03-15T14:21:56.938Z,123.75
2023-03-15T14:45:39.764Z,95.62
2023-03-15T14:51:59.770Z,101.25
2023-03-15T14:58:22.770Z,84.38
2023-03-15T15:04:42.773Z,84.38
2023-03-15T15:11:05.771Z,84.38
2023-03-15T15:17:25.765Z,84.38
2023-03-15T15:23:57.728Z,84.38
2023-03-15T15:30:08.799Z,67.5
2023-03-15T15:36:32.569Z,67.5
2023-03-15T15:42:51.825Z,67.5
2023-03-15T15:49:14.789Z,61.88
2023-03-15T15:55:34.762Z,56.25
2023-03-15T16:02:02.365Z,50.62
2023-03-15T16:08:17.747Z,45
2023-03-15T16:14:40.820Z,39.38
2023-03-15T16:21:00.827Z,33.75
2023-03-15T16:27:23.816Z,28.12
2023-03-15T16:33:43.935Z,28.12
2023-03-15T16:40:06.868Z,22.5
2023-03-15T16:46:26.934Z,16.88
2023-03-15T16:52:49.797Z,16.88
2023-03-15T16:59:09.817Z,11.25
2023-03-15T17:05:32.765Z,11.25
2023-03-15T17:11:52.820Z,5.62
2023-03-15T17:18:15.825Z,0
2023-03-15T17:24:35.771Z,0
2023-03-15T17:31:09.019Z,0
2023-03-15T17:37:20.527Z,0
2023-03-15T17:43:45.052Z,0
2023-03-15T17:50:05.179Z,0
2023-03-15T17:56:27.864Z,0
2023-03-15T18:02:54.847Z,0
2023-03-15T18:09:10.830Z,0
2023-03-15T18:15:30.901Z,0
2023-03-15T18:21:53.888Z,0
2023-03-15T18:28:13.819Z,0
2023-03-15T18:34:36.805Z,0
2023-03-15T18:40:56.741Z,0
2023-03-15T18:47:19.829Z,0
2023-03-15T18:53:39.973Z,0
2023-03-15T19:00:02.894Z,0
2023-03-15T19:06:22.864Z,0
2023-03-15T19:12:45.846Z,0
2023-03-15T19:19:05.788Z,0
2023-03-15T19:25:28.879Z,0
2023-03-15T19:31:48.767Z,0
2023-03-15T19:38:11.778Z,0
2023-03-15T19:55:40.780Z,0
2023-03-15T20:02:03.770Z,0
2023-03-15T20:08:25.335Z,0
2023-03-15T20:14:46.759Z,0
2023-03-15T20:21:06.758Z,0
2023-03-15T20:27:29.828Z,0
2023-03-15T20:33:49.758Z,0
2023-03-15T20:40:12.824Z,0
2023-03-15T20:46:32.790Z,0
2023-03-15T20:52:58.009Z,0
2023-03-15T20:59:17.780Z,0
2023-03-15T21:05:40.822Z,0
2023-03-15T21:12:00.907Z,0
2023-03-15T21:18:23.828Z,0
2023-03-15T21:24:54.959Z,0
2023-03-15T21:31:06.870Z,0
2023-03-15T21:37:26.868Z,0
2023-03-15T21:43:49.811Z,0
2023-03-15T21:50:09.939Z,0
2023-03-15T21:56:32.869Z,0
2023-03-15T22:02:54.599Z,0
2023-03-15T22:09:15.753Z,0
2023-03-15T22:15:35.755Z,0
2023-03-15T22:21:58.930Z,0
2023-03-15T22:28:18.833Z,0
2023-03-15T22:34:41.759Z,0
2023-03-15T22:41:01.811Z,0
2023-03-15T22:47:24.852Z,0
2023-03-15T22:53:44.796Z,0
2023-03-15T23:00:07.854Z,0
2023-03-15T23:23:05.762Z,0
2023-03-15T23:29:25.738Z,0
2023-03-15T23:35:48.776Z,0
2023-03-15T23:42:08.797Z,0
2023-03-15T23:48:31.873Z,0
2023-03-15T23:54:51.768Z,0
